Time;durP1;ratioP1;P1;durP2;ratioP2;P2;SDS_P1;SDS_P2;PMS_P1;PMS_P2;Temp;Humidity;BMP_temperature;BMP_pressure;BME280_temperature;BME280_humidity;BME280_pressure;Samples;Min_cycle;Max_cycle;Signal;HPM_P1;HPM_P2
2022/03/02 00:02:22;;;;;;;2.83;1.50;;;6.70;71.40;;;;;;5080445;28;20040;-73
2022/03/02 00:04:48;;;;;;;2.85;1.55;;;6.70;71.40;;;;;;5116053;28;20070;-72
2022/03/02 00:07:13;;;;;;;2.90;1.55;;;6.70;71.40;;;;;;5116006;28;20041;-73
2022/03/02 00:09:39;;;;;;;2.80;1.60;;;6.70;71.40;;;;;;5097194;28;20036;-73
2022/03/02 00:12:05;;;;;;;3.53;1.67;;;6.70;71.50;;;;;;5115465;28;20508;-73
2022/03/02 00:14:31;;;;;;;3.00;1.52;;;6.70;71.40;;;;;;5115300;28;20036;-73
2022/03/02 00:16:57;;;;;;;2.97;1.70;;;6.70;71.50;;;;;;5097054;28;20088;-73
2022/03/02 00:19:23;;;;;;;2.78;1.55;;;6.60;71.40;;;;;;5096841;28;20051;-73
2022/03/02 00:21:48;;;;;;;3.13;1.60;;;6.70;71.50;;;;;;5115268;28;20040;-73
2022/03/02 00:24:14;;;;;;;2.33;1.50;;;6.60;71.50;;;;;;5115206;28;20067;-72
2022/03/02 00:26:40;;;;;;;2.70;1.45;;;6.60;71.50;;;;;;5115170;28;20047;-72
2022/03/02 00:29:06;;;;;;;3.03;1.48;;;6.60;71.50;;;;;;5115429;28;20415;-72
2022/03/02 00:31:33;;;;;;;2.45;1.23;;;6.60;71.50;;;;;;5115506;28;20035;-73
2022/03/02 00:33:58;;;;;;;2.20;1.50;;;6.60;71.50;;;;;;5115256;28;20047;-72
2022/03/02 00:36:24;;;;;;;2.20;1.30;;;6.60;71.50;;;;;;5115224;28;20043;-72
2022/03/02 00:38:50;;;;;;;2.05;1.35;;;6.60;71.60;;;;;;5115200;28;20044;-72
2022/03/02 00:41:16;;;;;;;2.10;1.13;;;6.60;71.60;;;;;;5096863;28;20044;-72
2022/03/02 00:43:42;;;;;;;2.55;1.35;;;6.60;71.60;;;;;;5097156;28;20047;-73
2022/03/02 00:46:09;;;;;;;3.05;1.30;;;6.60;71.60;;;;;;5097221;28;20093;-72
2022/03/02 00:48:35;;;;;;;2.60;1.48;;;6.50;71.60;;;;;;5114705;28;20473;-73
2022/03/02 00:51:00;;;;;;;1.75;1.13;;;6.50;71.60;;;;;;5115074;28;20047;-72
2022/03/02 00:53:26;;;;;;;2.42;1.40;;;6.50;71.60;;;;;;5114560;28;20092;-72
2022/03/02 00:55:52;;;;;;;2.08;1.10;;;6.50;71.70;;;;;;5115089;28;20047;-73
2022/03/02 00:58:18;;;;;;;1.65;1.00;;;6.50;71.70;;;;;;5096674;28;20438;-73
2022/03/02 01:00:43;;;;;;;1.73;1.15;;;6.50;71.70;;;;;;5114925;28;20039;-73
2022/03/02 01:03:09;;;;;;;1.73;1.10;;;6.50;71.70;;;;;;5079345;28;20047;-72
2022/03/02 01:05:35;;;;;;;2.03;1.08;;;6.50;72.30;;;;;;5096007;28;20040;-72
2022/03/02 01:08:01;;;;;;;2.42;1.10;;;6.50;71.70;;;;;;5078586;28;20507;-73
2022/03/02 01:10:27;;;;;;;2.05;1.23;;;6.50;71.80;;;;;;5096223;28;20047;-73
2022/03/02 01:12:53;;;;;;;2.33;1.20;;;6.50;71.80;;;;;;5114339;28;20039;-74
2022/03/02 01:15:18;;;;;;;2.45;1.20;;;6.50;71.80;;;;;;5096213;28;20419;-73
2022/03/02 01:17:44;;;;;;;1.92;1.20;;;6.40;71.80;;;;;;5114319;28;20047;-74
2022/03/02 01:20:12;;;;;;;1.73;1.13;;;6.40;71.80;;;;;;5096041;28;20515;-72
2022/03/02 01:22:38;;;;;;;1.80;1.05;;;6.40;71.90;;;;;;5096395;28;20126;-72
2022/03/02 01:25:06;;;;;;;1.85;1.02;;;6.40;71.90;;;;;;5096343;28;20043;-73
2022/03/02 01:27:32;;;;;;;2.45;1.13;;;6.40;71.90;;;;;;5095842;28;20493;-72
2022/03/02 01:29:57;;;;;;;2.65;1.20;;;6.30;71.90;;;;;;5114413;28;20039;-73
2022/03/02 01:32:24;;;;;;;2.63;1.40;;;6.30;71.90;;;;;;5095950;28;20040;-72
2022/03/02 01:34:49;;;;;;;2.58;1.30;;;6.30;71.90;;;;;;5114113;28;20058;-73
2022/03/02 01:37:16;;;;;;;2.30;1.20;;;6.30;72.00;;;;;;5114388;28;20481;-72
2022/03/02 01:39:42;;;;;;;2.38;1.40;;;6.30;72.00;;;;;;5095885;28;20126;-73
2022/03/02 01:42:08;;;;;;;2.50;1.25;;;6.30;72.10;;;;;;5096070;28;20047;-73
2022/03/02 01:44:35;;;;;;;2.03;1.20;;;6.20;72.10;;;;;;5095844;28;20114;-72
2022/03/02 01:47:01;;;;;;;2.25;1.25;;;6.20;72.10;;;;;;5095544;28;20052;-73
2022/03/02 01:49:27;;;;;;;1.92;1.13;;;6.20;72.20;;;;;;5095493;28;20067;-73
2022/03/02 01:51:53;;;;;;;2.47;1.30;;;6.20;72.20;;;;;;5095762;28;20070;-72
2022/03/02 01:54:19;;;;;;;1.75;0.95;;;6.10;72.20;;;;;;5114094;28;20478;-73
2022/03/02 01:56:44;;;;;;;2.13;1.20;;;6.10;72.30;;;;;;5113840;28;20066;-72
2022/03/02 01:59:10;;;;;;;2.10;1.13;;;6.10;72.30;;;;;;5094084;28;20497;-72
2022/03/02 02:01:36;;;;;;;2.42;1.30;;;6.10;72.40;;;;;;5114025;28;20123;-72
2022/03/02 02:04:04;;;;;;;2.35;1.20;;;6.10;72.40;;;;;;5113584;28;20092;-72
2022/03/02 02:06:30;;;;;;;3.05;1.40;;;6.00;72.40;;;;;;5113621;28;20371;-72
2022/03/02 02:08:59;;;;;;;2.22;1.30;;;6.00;72.40;;;;;;5113924;28;20054;-72
2022/03/02 02:11:25;;;;;;;1.88;1.35;;;6.10;72.50;;;;;;5114175;28;20046;-72
2022/03/02 02:13:51;;;;;;;2.05;1.23;;;6.00;72.40;;;;;;5114072;28;20051;-73
2022/03/02 02:16:20;;;;;;;2.53;1.30;;;6.00;72.50;;;;;;5113507;28;20065;-72
2022/03/02 02:18:46;;;;;;;4.32;1.92;;;6.00;72.40;;;;;;5112164;28;20469;-72
2022/03/02 02:21:12;;;;;;;3.15;1.70;;;6.00;72.50;;;;;;5095687;28;20070;-72
2022/03/02 02:23:39;;;;;;;3.00;1.30;;;6.00;72.50;;;;;;5078253;28;20044;-73
2022/03/02 02:26:05;;;;;;;2.40;1.40;;;5.90;72.50;;;;;;5113363;28;20031;-72
2022/03/02 02:28:33;;;;;;;1.73;1.08;;;6.00;72.60;;;;;;5113542;28;20108;-72
2022/03/02 02:31:00;;;;;;;3.30;1.45;;;5.90;72.50;;;;;;5094923;28;20036;-72
2022/03/02 02:33:27;;;;;;;3.15;1.40;;;5.90;72.50;;;;;;5113183;28;20047;-72
2022/03/02 02:35:54;;;;;;;3.47;1.50;;;5.90;72.60;;;;;;5113443;28;20044;-72
2022/03/02 02:38:22;;;;;;;2.28;1.35;;;5.90;72.60;;;;;;5112955;28;20055;-72
2022/03/02 02:40:49;;;;;;;3.20;1.50;;;5.90;72.60;;;;;;5095042;28;20100;-73
2022/03/02 02:43:18;;;;;;;3.15;1.52;;;5.90;72.70;;;;;;5094871;28;20047;-72
2022/03/02 02:45:44;;;;;;;2.67;1.40;;;5.90;72.60;;;;;;5113076;28;20511;-72
2022/03/02 02:48:10;;;;;;;3.08;1.73;;;5.90;72.70;;;;;;5113281;28;20043;-72
2022/03/02 02:50:36;;;;;;;2.28;1.42;;;5.70;72.50;;;;;;5112662;28;20066;-72
2022/03/02 02:53:06;;;;;;;3.13;1.40;;;5.80;72.60;;;;;;5113275;28;20480;-72
2022/03/02 02:55:33;;;;;;;3.88;1.40;;;5.80;72.70;;;;;;5094436;28;20458;-72
2022/03/02 02:58:00;;;;;;;1.95;1.10;;;5.80;72.60;;;;;;5112647;28;20401;-73
2022/03/02 03:00:29;;;;;;;2.78;1.50;;;5.80;72.60;;;;;;5113216;28;20075;-73
2022/03/02 03:02:56;;;;;;;2.20;1.33;;;5.80;72.60;;;;;;5113168;28;20039;-72
2022/03/02 03:05:26;;;;;;;2.50;1.45;;;5.80;72.70;;;;;;5112795;28;20532;-73
2022/03/02 03:07:53;;;;;;;2.80;1.38;;;5.80;72.60;;;;;;5113056;28;20048;-73
2022/03/02 03:10:19;;;;;;;2.45;1.45;;;5.80;72.60;;;;;;5112626;28;20043;-72
2022/03/02 03:12:46;;;;;;;2.72;1.48;;;5.80;72.60;;;;;;5112640;28;20058;-72
2022/03/02 03:15:14;;;;;;;2.10;1.17;;;5.80;72.60;;;;;;5094330;28;20101;-72
2022/03/02 03:17:41;;;;;;;2.55;1.52;;;5.80;72.70;;;;;;5112539;28;20407;-73
2022/03/02 03:20:10;;;;;;;2.05;1.27;;;5.70;72.60;;;;;;5113085;28;20486;-72
2022/03/02 03:22:36;;;;;;;1.80;1.13;;;5.80;72.70;;;;;;5112458;28;20481;-72
2022/03/02 03:25:03;;;;;;;1.45;1.00;;;5.80;72.70;;;;;;5112382;28;20051;-72
2022/03/02 03:27:29;;;;;;;2.35;1.30;;;5.80;72.70;;;;;;5112306;28;20100;-73
2022/03/02 03:29:55;;;;;;;3.25;1.40;;;5.80;73.10;;;;;;5094673;28;20043;-72
2022/03/02 03:32:21;;;;;;;2.13;1.20;;;5.80;73.40;;;;;;5116450;28;20043;-72
2022/03/02 03:34:47;;;;;;;2.03;1.25;;;5.90;72.70;;;;;;5115977;28;20034;-72
2022/03/02 03:37:12;;;;;;;4.00;1.40;;;5.80;72.60;;;;;;5116336;28;20063;-72
2022/03/02 03:39:38;;;;;;;3.55;1.63;;;5.70;72.60;;;;;;5116064;28;20039;-73
2022/03/02 03:42:04;;;;;;;3.22;1.60;;;5.80;72.60;;;;;;5116350;28;20084;-72
2022/03/02 03:44:30;;;;;;;2.45;1.40;;;5.80;72.60;;;;;;5115943;28;20050;-72
2022/03/02 03:46:56;;;;;;;1.98;1.20;;;5.80;72.60;;;;;;5116262;28;20039;-72
2022/03/02 03:49:22;;;;;;;3.88;1.70;;;5.80;72.60;;;;;;5116149;28;20074;-72
2022/03/02 03:51:47;;;;;;;2.47;1.38;;;5.70;72.60;;;;;;5115593;28;20055;-73
2022/03/02 03:54:13;;;;;;;3.33;1.50;;;5.80;72.70;;;;;;5097451;28;20580;-72
2022/03/02 03:56:39;;;;;;;2.15;1.08;;;5.70;72.70;;;;;;5097652;28;20088;-72
2022/03/02 03:59:07;;;;;;;3.03;1.40;;;5.70;72.70;;;;;;5115741;28;20435;-73
2022/03/02 04:01:34;;;;;;;1.77;1.02;;;5.70;72.80;;;;;;5116153;28;20381;-72
2022/03/02 04:04:00;;;;;;;2.58;1.25;;;5.70;72.90;;;;;;5097669;28;20477;-72
2022/03/02 04:06:26;;;;;;;2.30;1.50;;;5.60;72.90;;;;;;5116161;28;20099;-72
2022/03/02 04:08:52;;;;;;;1.95;1.20;;;5.60;72.90;;;;;;5115580;28;20031;-72
2022/03/02 04:11:18;;;;;;;2.05;1.10;;;5.60;73.00;;;;;;5080471;28;20059;-73
2022/03/02 04:13:44;;;;;;;2.67;1.25;;;5.50;73.10;;;;;;5097271;28;20036;-72
2022/03/02 04:16:11;;;;;;;1.95;1.17;;;5.50;73.20;;;;;;5115904;28;20370;-72
2022/03/02 04:18:37;;;;;;;2.53;1.33;;;5.40;73.20;;;;;;5097146;28;20043;-72
2022/03/02 04:21:02;;;;;;;2.03;1.10;;;5.40;73.40;;;;;;5115475;28;20058;-72
2022/03/02 04:23:28;;;;;;;2.45;1.27;;;5.40;73.50;;;;;;5097443;28;20126;-72
2022/03/02 04:25:54;;;;;;;1.70;1.13;;;5.30;73.50;;;;;;5115616;28;20473;-72
2022/03/02 04:28:21;;;;;;;1.90;1.00;;;5.30;73.60;;;;;;5097023;28;20134;-72
2022/03/02 04:30:47;;;;;;;2.72;1.10;;;5.30;73.70;;;;;;5096556;28;20040;-72
2022/03/02 04:33:13;;;;;;;2.30;1.38;;;5.20;73.70;;;;;;5115262;28;20118;-72
2022/03/02 04:35:40;;;;;;;2.20;1.30;;;5.20;73.70;;;;;;5114915;28;20040;-72
2022/03/02 04:38:06;;;;;;;2.92;1.30;;;5.20;73.70;;;;;;5096671;28;20028;-72
2022/03/02 04:40:34;;;;;;;2.03;1.17;;;5.20;73.80;;;;;;5096614;28;20557;-72
2022/03/02 04:43:00;;;;;;;2.50;1.13;;;5.20;73.90;;;;;;5113684;28;20044;-72
2022/03/02 04:45:27;;;;;;;2.30;1.38;;;5.20;73.80;;;;;;5114679;28;20446;-73
2022/03/02 04:47:54;;;;;;;3.85;1.60;;;5.20;73.80;;;;;;5115013;28;20075;-72
2022/03/02 04:50:20;;;;;;;2.97;1.48;;;5.20;73.80;;;;;;5096347;28;20048;-72
2022/03/02 04:52:48;;;;;;;2.47;1.50;;;5.20;73.80;;;;;;5114570;28;20035;-72
2022/03/02 04:55:16;;;;;;;2.17;1.23;;;5.20;73.80;;;;;;5115094;28;20035;-72
2022/03/02 04:57:50;;;;;;;2.50;1.23;;;5.20;73.70;;;;;;5114898;28;20050;-72
2022/03/02 05:00:19;;;;;;;2.08;1.30;;;5.20;73.70;;;;;;5114604;28;20040;-73
2022/03/02 05:02:45;;;;;;;2.63;1.40;;;5.20;73.70;;;;;;5114891;28;20405;-73
2022/03/02 05:05:13;;;;;;;2.55;1.50;;;5.20;73.70;;;;;;5115011;28;20108;-72
2022/03/02 05:07:40;;;;;;;2.95;1.48;;;5.20;73.70;;;;;;5115145;28;20036;-73
2022/03/02 05:10:07;;;;;;;2.50;1.25;;;5.20;73.70;;;;;;5096264;28;20040;-73
2022/03/02 05:12:33;;;;;;;3.20;1.70;;;5.20;73.70;;;;;;5114527;28;20043;-72
2022/03/02 05:14:59;;;;;;;2.38;1.38;;;5.10;73.70;;;;;;5115114;28;20122;-72
2022/03/02 05:17:25;;;;;;;2.30;1.20;;;5.10;73.80;;;;;;5096792;28;20122;-73
2022/03/02 05:19:51;;;;;;;3.72;1.80;;;5.10;73.90;;;;;;5114524;28;20164;-72
2022/03/02 05:22:17;;;;;;;3.33;1.58;;;5.10;74.00;;;;;;5096190;28;20050;-72
2022/03/02 05:24:43;;;;;;;2.92;1.70;;;5.00;74.00;;;;;;5114564;28;20043;-72
2022/03/02 05:27:09;;;;;;;2.78;1.60;;;4.90;74.00;;;;;;5114432;28;20118;-73
2022/03/02 05:29:36;;;;;;;2.45;1.25;;;5.00;74.20;;;;;;5114328;28;20043;-73
2022/03/02 05:32:03;;;;;;;2.28;1.23;;;4.90;74.30;;;;;;5114179;28;20127;-72
2022/03/02 05:34:29;;;;;;;2.92;1.40;;;4.80;74.30;;;;;;5114606;28;20062;-72
2022/03/02 05:36:54;;;;;;;2.95;1.60;;;4.80;74.30;;;;;;5096018;28;20390;-72
2022/03/02 05:39:21;;;;;;;3.47;1.45;;;4.90;74.50;;;;;;5095921;28;20047;-72
2022/03/02 05:41:46;;;;;;;2.75;1.35;;;4.80;74.50;;;;;;5114528;28;20043;-72
2022/03/02 05:44:12;;;;;;;3.30;1.67;;;4.70;74.60;;;;;;5095027;28;20048;-72
2022/03/02 05:46:39;;;;;;;2.17;1.20;;;4.70;74.60;;;;;;5114475;28;20153;-73
2022/03/02 05:49:05;;;;;;;2.20;1.25;;;4.70;74.80;;;;;;5114096;28;20070;-73
2022/03/02 05:51:31;;;;;;;2.60;1.55;;;4.60;74.80;;;;;;5095538;28;20564;-73
2022/03/02 05:53:58;;;;;;;2.67;1.27;;;4.60;75.00;;;;;;5114069;28;20044;-72
2022/03/02 05:56:25;;;;;;;2.97;1.60;;;4.50;75.00;;;;;;5114388;28;20124;-72
2022/03/02 05:58:51;;;;;;;4.25;1.63;;;4.50;75.10;;;;;;5114556;28;20050;-72
2022/03/02 06:01:17;;;;;;;3.38;1.60;;;4.50;75.10;;;;;;5114466;28;20032;-72
2022/03/02 06:03:44;;;;;;;2.53;1.15;;;4.50;75.20;;;;;;5095954;28;20122;-72
2022/03/02 06:06:10;;;;;;;3.20;1.50;;;4.40;75.20;;;;;;5095510;28;20123;-72
2022/03/02 06:08:36;;;;;;;2.40;1.20;;;4.40;75.20;;;;;;5078884;28;20031;-72
2022/03/02 06:11:03;;;;;;;3.58;1.77;;;4.40;75.30;;;;;;5113686;28;20374;-71
2022/03/02 06:13:30;;;;;;;2.47;1.33;;;4.30;75.30;;;;;;5114226;28;20538;-72
2022/03/02 06:15:58;;;;;;;2.65;1.20;;;4.30;75.40;;;;;;5113590;28;20407;-73
2022/03/02 06:18:25;;;;;;;3.63;1.55;;;4.20;75.40;;;;;;5112376;28;20057;-72
2022/03/02 06:20:52;;;;;;;2.15;1.10;;;4.20;75.40;;;;;;5095228;28;20134;-72
2022/03/02 06:23:20;;;;;;;2.25;1.20;;;4.20;75.50;;;;;;5095289;28;20126;-72
2022/03/02 06:25:47;;;;;;;2.42;1.40;;;4.10;75.50;;;;;;5113618;28;20135;-72
2022/03/02 06:28:13;;;;;;;2.70;1.40;;;4.20;75.60;;;;;;5113699;28;20039;-72
2022/03/02 06:30:38;;;;;;;2.22;1.20;;;4.10;75.60;;;;;;5095731;28;20035;-71
2022/03/02 06:33:04;;;;;;;2.75;1.38;;;4.10;75.70;;;;;;5113908;28;20063;-72
2022/03/02 06:35:30;;;;;;;1.83;1.15;;;4.10;75.70;;;;;;5113921;28;20076;-72
2022/03/02 06:37:56;;;;;;;2.63;1.25;;;4.00;75.60;;;;;;5113427;28;20043;-72
2022/03/02 06:40:21;;;;;;;2.53;1.30;;;4.10;75.70;;;;;;5114092;28;20062;-72
2022/03/02 06:42:59;;;;;;;2.08;1.10;;;4.10;75.70;;;;;;5095839;28;20047;-72
2022/03/02 06:45:42;;;;;;;2.08;1.20;;;4.00;75.70;;;;;;5095937;28;20070;-72
2022/03/02 06:48:12;;;;;;;2.20;1.02;;;4.00;76.30;;;;;;5112865;28;20043;-72
2022/03/02 06:50:43;;;;;;;2.50;1.30;;;4.10;75.80;;;;;;5094891;28;20048;-72
2022/03/02 06:53:14;;;;;;;3.92;1.73;;;4.00;75.70;;;;;;5113446;28;20047;-73
2022/03/02 06:55:41;;;;;;;4.00;1.70;;;4.00;75.70;;;;;;5113433;28;20122;-73
2022/03/02 06:58:10;;;;;;;3.72;1.60;;;4.10;75.60;;;;;;5095345;28;20041;-73
2022/03/02 07:00:38;;;;;;;3.63;1.50;;;4.10;75.60;;;;;;5113404;28;20051;-72
2022/03/02 07:03:06;;;;;;;2.40;1.30;;;4.10;75.50;;;;;;5112685;28;20047;-72
2022/03/02 07:05:33;;;;;;;2.28;1.20;;;4.10;75.50;;;;;;5094070;28;20051;-72
2022/03/02 07:08:01;;;;;;;2.63;1.20;;;4.10;75.40;;;;;;5113329;28;20050;-72
2022/03/02 07:10:27;;;;;;;1.95;1.15;;;4.20;75.40;;;;;;5112841;28;20477;-72
2022/03/02 07:12:53;;;;;;;2.85;1.40;;;4.20;75.30;;;;;;5113095;28;20031;-72
2022/03/02 07:15:19;;;;;;;2.40;1.27;;;4.30;75.30;;;;;;5112937;28;20585;-72
2022/03/02 07:17:45;;;;;;;2.75;1.58;;;4.20;75.20;;;;;;5112736;28;20044;-73
2022/03/02 07:20:12;;;;;;;2.90;1.40;;;4.30;75.30;;;;;;5094487;28;20040;-72
2022/03/02 07:22:43;;;;;;;3.35;1.55;;;4.30;75.20;;;;;;5077738;28;20815;-73
2022/03/02 07:25:21;;;;;;;3.72;1.58;;;4.40;75.20;;;;;;5113378;28;20544;-72
2022/03/02 07:27:49;;;;;;;3.42;1.30;;;4.40;75.10;;;;;;5111197;28;20040;-72
2022/03/02 07:30:16;;;;;;;2.85;1.50;;;4.50;75.00;;;;;;5110955;28;20042;-72
2022/03/02 07:32:45;;;;;;;2.58;1.50;;;4.50;74.80;;;;;;5112920;28;20489;-72
2022/03/02 07:35:13;;;;;;;3.58;1.70;;;4.60;74.80;;;;;;5094236;28;20044;-71
2022/03/02 07:37:39;;;;;;;2.72;1.40;;;4.60;74.60;;;;;;5112848;28;20039;-72
2022/03/02 07:40:07;;;;;;;3.42;1.67;;;4.70;74.60;;;;;;5112456;28;20116;-72
2022/03/02 07:42:34;;;;;;;3.65;1.83;;;4.70;74.60;;;;;;5112575;28;20039;-72
2022/03/02 07:45:01;;;;;;;4.50;1.88;;;4.70;74.50;;;;;;5094479;28;20117;-72
2022/03/02 07:47:27;;;;;;;2.92;1.45;;;4.70;74.40;;;;;;5112848;28;20136;-72
2022/03/02 07:49:53;;;;;;;2.60;1.50;;;4.90;74.40;;;;;;5094274;28;20493;-72
2022/03/02 07:52:27;;;;;;;2.92;1.42;;;4.90;74.30;;;;;;5094735;28;20096;-72
2022/03/02 07:54:57;;;;;;;3.70;1.73;;;5.00;74.10;;;;;;5112284;28;20515;-72
2022/03/02 07:57:24;;;;;;;3.03;1.75;;;5.10;74.10;;;;;;5094401;28;20040;-71
2022/03/02 07:59:52;;;;;;;2.95;1.50;;;5.20;73.90;;;;;;5112593;28;20040;-72
2022/03/02 08:02:21;;;;;;;2.72;1.35;;;5.20;73.80;;;;;;5110274;28;20036;-72
2022/03/02 08:04:52;;;;;;;2.85;1.50;;;5.30;73.70;;;;;;5111998;28;20066;-72
2022/03/02 08:07:19;;;;;;;2.55;1.58;;;5.40;73.60;;;;;;5112546;28;20050;-72
2022/03/02 08:09:45;;;;;;;2.70;1.38;;;5.40;73.40;;;;;;5093944;28;20047;-72
2022/03/02 08:12:11;;;;;;;4.32;1.73;;;5.50;73.30;;;;;;5112071;28;20039;-72
2022/03/02 08:14:39;;;;;;;3.65;1.35;;;5.60;73.20;;;;;;5111918;28;20044;-72
2022/03/02 08:17:05;;;;;;;3.30;1.35;;;5.70;73.10;;;;;;5114318;28;20039;-72
2022/03/02 08:19:31;;;;;;;2.72;1.38;;;5.80;73.10;;;;;;5097191;28;20048;-72
2022/03/02 08:22:03;;;;;;;2.63;1.20;;;5.90;73.00;;;;;;5115284;28;20051;-73
2022/03/02 08:24:31;;;;;;;3.13;1.30;;;6.00;72.80;;;;;;5115981;28;20055;-72
2022/03/02 08:27:00;;;;;;;2.78;1.42;;;6.10;72.70;;;;;;5115820;28;20050;-72
2022/03/02 08:29:30;;;;;;;2.78;1.50;;;6.20;72.60;;;;;;5115655;28;20063;-73
2022/03/02 08:32:02;;;;;;;3.35;1.50;;;6.20;72.50;;;;;;5097004;28;20066;-72
2022/03/02 08:34:29;;;;;;;2.75;1.50;;;6.30;72.50;;;;;;5097041;28;20116;-72
2022/03/02 08:36:56;;;;;;;2.60;1.33;;;6.30;72.30;;;;;;5115307;28;20511;-73
2022/03/02 08:39:23;;;;;;;2.58;1.48;;;6.40;72.30;;;;;;5097522;28;20130;-73
2022/03/02 08:41:50;;;;;;;3.03;1.52;;;6.50;72.20;;;;;;5115455;28;20044;-72
2022/03/02 08:44:15;;;;;;;3.08;1.45;;;6.50;72.80;;;;;;5096892;28;20044;-73
2022/03/02 08:46:45;;;;;;;2.78;1.50;;;6.60;72.10;;;;;;5097098;28;20043;-73
2022/03/02 08:49:12;;;;;;;3.63;1.67;;;6.70;72.00;;;;;;5115044;28;20043;-73
2022/03/02 08:51:39;;;;;;;2.72;1.65;;;6.70;71.90;;;;;;5094979;28;20070;-73
2022/03/02 08:54:06;;;;;;;3.97;1.77;;;6.70;71.70;;;;;;5115263;28;20119;-72
2022/03/02 08:56:36;;;;;;;2.45;1.50;;;6.80;71.70;;;;;;5115256;28;20035;-73
2022/03/02 08:59:03;;;;;;;2.22;1.45;;;6.90;71.70;;;;;;5097999;28;20122;-72
2022/03/02 09:01:31;;;;;;;2.38;1.50;;;6.90;71.60;;;;;;5115129;28;20048;-71
2022/03/02 09:04:00;;;;;;;3.38;1.60;;;6.90;71.60;;;;;;5114901;28;20095;-72
2022/03/02 09:06:28;;;;;;;2.17;1.25;;;7.00;71.60;;;;;;5078356;28;20036;-73
2022/03/02 09:08:55;;;;;;;3.55;1.73;;;7.00;71.50;;;;;;5114816;28;20039;-72
2022/03/02 09:11:23;;;;;;;3.33;1.73;;;7.10;72.00;;;;;;5079713;28;20088;-73
2022/03/02 09:13:50;;;;;;;3.33;1.65;;;7.10;71.20;;;;;;5114774;28;20054;-73
2022/03/02 09:16:18;;;;;;;2.17;1.42;;;7.10;71.20;;;;;;5114857;28;20562;-72
2022/03/02 09:18:44;;;;;;;3.13;1.60;;;7.20;71.10;;;;;;5079731;28;20035;-72
2022/03/02 09:21:15;;;;;;;3.25;1.73;;;7.20;71.00;;;;;;5114680;28;20036;-72
2022/03/02 09:23:45;;;;;;;3.60;1.65;;;7.30;70.90;;;;;;5096734;28;20051;-72
2022/03/02 09:26:15;;;;;;;3.03;1.50;;;7.40;70.90;;;;;;5114527;28;20067;-73
2022/03/02 09:28:45;;;;;;;3.35;1.65;;;7.40;70.80;;;;;;5113885;28;20036;-72
2022/03/02 09:31:14;;;;;;;2.72;1.48;;;7.40;70.60;;;;;;5096787;28;20040;-72
2022/03/02 09:33:41;;;;;;;2.47;1.50;;;7.50;70.60;;;;;;5114348;28;20370;-72
2022/03/02 09:36:09;;;;;;;2.72;1.63;;;7.50;70.50;;;;;;5095926;28;20051;-73
2022/03/02 09:38:38;;;;;;;2.75;1.55;;;7.60;70.50;;;;;;5095944;28;20088;-73
2022/03/02 09:41:13;;;;;;;4.03;1.83;;;7.70;70.40;;;;;;5095980;28;20039;-72
2022/03/02 09:43:43;;;;;;;3.47;1.73;;;7.70;70.20;;;;;;5095888;28;20043;-73
2022/03/02 09:46:12;;;;;;;2.95;1.67;;;7.80;70.10;;;;;;5114190;28;20109;-73
2022/03/02 09:48:47;;;;;;;3.72;1.98;;;7.90;69.90;;;;;;5114339;28;20075;-72
2022/03/02 09:51:22;;;;;;;4.20;2.10;;;7.90;69.80;;;;;;5112107;28;20407;-72
2022/03/02 09:53:52;;;;;;;3.72;1.88;;;7.90;69.70;;;;;;5095927;28;20036;-72
2022/03/02 09:56:22;;;;;;;3.75;1.80;;;8.00;69.70;;;;;;5113963;28;20141;-73
2022/03/02 09:58:50;;;;;;;3.70;1.80;;;8.00;69.60;;;;;;5114172;28;20038;-72
2022/03/02 10:01:22;;;;;;;3.78;1.95;;;7.90;69.50;;;;;;5113937;28;20042;-73
2022/03/02 10:03:50;;;;;;;4.28;1.98;;;8.00;69.50;;;;;;5114536;28;20043;-73
2022/03/02 10:06:18;;;;;;;2.38;1.50;;;8.10;69.40;;;;;;5096576;28;20088;-72
2022/03/02 10:08:50;;;;;;;5.07;2.00;;;8.00;69.30;;;;;;5113945;28;20066;-73
2022/03/02 10:11:19;;;;;;;3.42;1.80;;;8.10;69.40;;;;;;5078977;28;20442;-73
2022/03/02 10:13:45;;;;;;;3.50;1.90;;;8.20;69.30;;;;;;5113749;28;20065;-73
2022/03/02 10:16:21;;;;;;;4.22;1.92;;;8.20;69.10;;;;;;5113724;28;20092;-73
2022/03/02 10:18:55;;;;;;;3.30;1.90;;;8.20;69.00;;;;;;5113509;28;20046;-72
2022/03/02 10:21:28;;;;;;;4.97;2.00;;;8.20;69.00;;;;;;5095831;28;20127;-74
2022/03/02 10:23:58;;;;;;;4.22;2.15;;;8.30;69.10;;;;;;5113636;28;20043;-73
2022/03/02 10:26:28;;;;;;;4.07;2.17;;;8.30;68.90;;;;;;5113478;28;20119;-73
2022/03/02 10:29:04;;;;;;;3.33;1.90;;;8.40;68.90;;;;;;5113866;28;20047;-73
2022/03/02 10:32:00;;;;;;;4.50;1.73;;;8.40;68.70;;;;;;5095145;28;20036;-73
2022/03/02 10:34:32;;;;;;;3.38;1.80;;;8.50;68.70;;;;;;5112557;28;20916;-72
2022/03/02 10:37:10;;;;;;;4.32;2.05;;;8.50;68.60;;;;;;5113693;28;20040;-72
2022/03/02 10:40:05;;;;;;;3.90;1.80;;;8.60;68.50;;;;;;5112121;28;20043;-72
2022/03/02 10:42:35;;;;;;;3.92;1.73;;;8.60;68.40;;;;;;5097338;28;20048;-73
2022/03/02 10:45:08;;;;;;;3.38;1.98;;;8.60;68.30;;;;;;5113239;28;20431;-72
2022/03/02 10:47:42;;;;;;;3.78;1.98;;;8.70;68.20;;;;;;5095816;28;20481;-72
2022/03/02 10:50:09;;;;;;;4.03;1.90;;;8.80;68.10;;;;;;5111571;28;20438;-73
2022/03/02 10:52:39;;;;;;;4.13;2.10;;;8.80;67.90;;;;;;5093152;28;20039;-72
2022/03/02 10:55:09;;;;;;;4.70;2.03;;;8.90;67.90;;;;;;5113099;28;20048;-72
2022/03/02 10:57:35;;;;;;;3.30;1.83;;;8.90;67.80;;;;;;5113484;28;20040;-72
2022/03/02 11:00:11;;;;;;;3.35;1.80;;;9.00;68.40;;;;;;5113646;28;20048;-72
2022/03/02 11:02:41;;;;;;;3.22;1.70;;;9.10;67.50;;;;;;5111528;28;20489;-73
2022/03/02 11:05:11;;;;;;;3.80;1.80;;;9.20;67.40;;;;;;5111375;28;20051;-73
2022/03/02 11:07:38;;;;;;;4.20;2.03;;;9.20;67.30;;;;;;5111070;28;20493;-72
2022/03/02 11:10:06;;;;;;;4.47;1.70;;;9.30;67.20;;;;;;5094807;28;20058;-72
2022/03/02 11:12:32;;;;;;;3.60;1.90;;;9.30;67.00;;;;;;5113231;28;20114;-72
2022/03/02 11:15:02;;;;;;;3.65;2.05;;;9.40;66.90;;;;;;5113170;28;20078;-73
2022/03/02 11:17:28;;;;;;;3.47;1.95;;;9.40;66.90;;;;;;5095733;28;20507;-73
2022/03/02 11:19:55;;;;;;;3.00;1.73;;;9.40;66.80;;;;;;5113157;28;20044;-73
2022/03/02 11:22:23;;;;;;;3.60;1.90;;;9.40;66.80;;;;;;5113372;28;20047;-73
2022/03/02 11:24:55;;;;;;;3.45;1.70;;;9.50;66.80;;;;;;5094484;28;20405;-72
2022/03/02 11:27:37;;;;;;;3.05;1.80;;;9.50;66.60;;;;;;5094230;28;20039;-72
2022/03/02 11:30:13;;;;;;;3.10;1.80;;;9.60;66.60;;;;;;5093621;28;20052;-72
2022/03/02 11:32:41;;;;;;;3.35;1.85;;;9.70;66.40;;;;;;5092197;28;20067;-73
2022/03/02 11:35:09;;;;;;;3.72;1.95;;;9.70;66.30;;;;;;5113245;28;20043;-72
2022/03/02 11:37:36;;;;;;;2.78;1.48;;;9.80;66.20;;;;;;5112641;28;20349;-73
2022/03/02 11:40:05;;;;;;;2.17;1.45;;;9.80;66.10;;;;;;5095053;28;20035;-72
2022/03/02 11:42:34;;;;;;;2.35;1.40;;;9.90;66.10;;;;;;5094509;28;20043;-73
2022/03/02 11:45:01;;;;;;;2.88;1.45;;;10.00;66.00;;;;;;5094792;28;20047;-72
2022/03/02 11:47:38;;;;;;;3.10;1.63;;;10.10;65.90;;;;;;5113011;28;20078;-72
2022/03/02 11:50:08;;;;;;;3.50;1.75;;;10.20;65.70;;;;;;5111654;28;20165;-73
2022/03/02 11:52:36;;;;;;;2.97;1.70;;;10.20;65.60;;;;;;5097334;28;20035;-72
2022/03/02 11:55:12;;;;;;;3.72;2.00;;;10.20;65.40;;;;;;5097678;28;20047;-72
2022/03/02 11:57:47;;;;;;;3.97;2.00;;;10.30;65.30;;;;;;5097787;28;20127;-73
2022/03/02 12:00:19;;;;;;;4.10;2.05;;;10.30;65.30;;;;;;5095873;28;20047;-73
2022/03/02 12:02:48;;;;;;;3.08;1.77;;;10.30;65.20;;;;;;5114627;28;20043;-72
2022/03/02 12:05:16;;;;;;;3.47;1.83;;;10.30;65.10;;;;;;5081038;28;20040;-72
2022/03/02 12:07:46;;;;;;;3.20;1.95;;;10.40;65.70;;;;;;5097791;28;20123;-72
2022/03/02 12:10:23;;;;;;;2.92;1.75;;;10.50;65.00;;;;;;5116014;28;20040;-72
2022/03/02 12:12:50;;;;;;;3.33;1.83;;;10.50;64.70;;;;;;5114745;28;20510;-72
2022/03/02 12:15:18;;;;;;;4.05;2.05;;;10.50;64.80;;;;;;5115705;28;20524;-72
2022/03/02 12:17:46;;;;;;;3.53;2.13;;;10.60;64.70;;;;;;5085119;28;20032;-72
2022/03/02 12:20:17;;;;;;;3.92;2.03;;;10.60;64.60;;;;;;5115603;28;20050;-72
2022/03/02 12:22:45;;;;;;;4.15;2.17;;;10.60;64.30;;;;;;5080914;28;20059;-73
2022/03/02 12:25:13;;;;;;;3.80;2.10;;;10.60;64.20;;;;;;5097607;28;20412;-72
2022/03/02 12:27:41;;;;;;;3.25;1.90;;;10.70;64.30;;;;;;5115485;28;20077;-72
2022/03/02 12:30:10;;;;;;;3.70;2.10;;;10.80;64.20;;;;;;5097252;28;20109;-72
2022/03/02 12:32:39;;;;;;;3.95;2.10;;;10.90;64.20;;;;;;5116418;28;20066;-72
2022/03/02 12:35:08;;;;;;;3.58;1.90;;;11.00;63.90;;;;;;5098579;28;20036;-71
2022/03/02 12:37:35;;;;;;;4.18;2.10;;;11.20;63.70;;;;;;5098505;28;20035;-71
2022/03/02 12:40:04;;;;;;;3.80;2.10;;;11.20;63.50;;;;;;5097332;28;20115;-71
2022/03/02 12:42:29;;;;;;;3.65;2.05;;;11.30;63.30;;;;;;5115350;28;20122;-72
2022/03/02 12:44:57;;;;;;;3.08;1.88;;;11.30;63.20;;;;;;5115761;28;20462;-71
2022/03/02 12:47:27;;;;;;;3.35;1.75;;;11.40;63.20;;;;;;5115549;28;20043;-71
2022/03/02 12:49:54;;;;;;;2.50;1.65;;;11.50;63.10;;;;;;5080194;28;20123;-71
2022/03/02 12:52:24;;;;;;;3.10;1.80;;;11.50;63.00;;;;;;5115573;28;20039;-71
2022/03/02 12:54:52;;;;;;;3.08;1.63;;;11.60;62.80;;;;;;5095841;28;20032;-71
2022/03/02 12:57:22;;;;;;;4.75;2.00;;;11.70;62.80;;;;;;5097185;28;20046;-72
2022/03/02 12:59:49;;;;;;;4.07;1.90;;;11.70;62.70;;;;;;5097286;28;20047;-74